Skin ADV
Stampa

METAR LIMF - Aeroporto di Roma Fiumicino FCO

Roma Fiumicino, Italy (LIRF) 41-48N 012-14E 3M

Jun 26, 2019 - 04:50 PM EDT / 2019.06.26 2050 UTC

Wind: from the W (260 degrees) at 5 MPH (4 KT):0

Visibility: greater than 7 mile(s):0

Temperature: 78 F (26 C)

Dew Point: 69 F (21 C)

Relative Humidity: 73%

Pressure (altimeter): 30.06 in. Hg (1018 hPa)

ob: LIRF 262050Z 26004KT CAVOK 26/21 Q1018 NOSIG

cycle: 21

 Dati METAR in tempo reale | Fonte: NOAA

1 1 1 1 1 1 1 1 1 1 Rating 0.00 (0 Votes)

hits
154
Ritieni il contenuto di questa pagina incompleto, non attendibile oppure oggetto di altre problematiche? INVIA UNA SEGNALAZIONE Grazie!